createdAt,value
2018-11-25T00:04:58.301Z,4.90
2018-11-25T00:10:12.284Z,4.43
2018-11-25T00:17:58.503Z,4.20
2018-11-25T00:20:33.469Z,3.97
2018-11-25T00:28:14.946Z,4.13
2018-11-25T00:30:50.097Z,3.62
2018-11-25T00:33:24.953Z,4.17
2018-11-25T00:36:08.956Z,4.13
2018-11-25T00:38:43.899Z,4.63
2018-11-25T00:41:19.787Z,4.80
2018-11-25T00:43:54.557Z,4.10
2018-11-25T00:46:29.294Z,4.50
2018-11-25T00:49:06.080Z,4.20
2018-11-25T00:51:41.291Z,3.90
2018-11-25T00:56:50.460Z,3.77
2018-11-25T00:59:25.292Z,3.90
2018-11-25T01:05:13.291Z,4.57
2018-11-25T01:12:56.489Z,4.63
2018-11-25T01:15:31.282Z,4.13
2018-11-25T01:20:38.788Z,4.60
2018-11-25T01:23:13.432Z,4.10
2018-11-25T01:25:48.281Z,3.97
2018-11-25T01:38:35.134Z,4.27
2018-11-25T01:41:10.287Z,4.57
2018-11-25T01:46:19.273Z,4.45
2018-11-25T01:48:54.283Z,3.63
2018-11-25T01:54:03.981Z,4.30
2018-11-25T01:56:39.113Z,3.47
2018-11-25T02:04:20.099Z,3.80
2018-11-25T02:06:55.294Z,4.33
2018-11-25T02:14:36.741Z,3.80
2018-11-25T02:17:12.556Z,3.97
2018-11-25T02:19:47.575Z,4.43
2018-11-25T02:22:22.537Z,3.87
2018-11-25T02:25:00.413Z,4.47
2018-11-25T02:27:36.296Z,4.03
2018-11-25T02:32:48.451Z,4.20
2018-11-25T02:35:23.279Z,4.37
2018-11-25T02:38:01.539Z,4.00
2018-11-25T02:40:39.433Z,4.07
2018-11-25T02:43:14.072Z,4.60
2018-11-25T02:45:48.957Z,3.87
2018-11-25T02:48:23.439Z,4.20
2018-11-25T02:50:58.971Z,4.50
2018-11-25T02:53:41.465Z,4.57
2018-11-25T02:56:16.446Z,4.73
2018-11-25T02:58:51.287Z,4.50
2018-11-25T03:03:59.789Z,4.27
2018-11-25T03:06:34.432Z,3.90
2018-11-25T03:09:11.102Z,4.47
2018-11-25T03:14:18.884Z,3.67
2018-11-25T03:16:54.329Z,4.37
2018-11-25T03:24:35.353Z,4.20
2018-11-25T03:27:10.343Z,4.63
2018-11-25T03:29:44.954Z,4.03
2018-11-25T03:32:19.773Z,4.40
2018-11-25T03:34:54.408Z,4.00
2018-11-25T03:37:41.814Z,4.40
2018-11-25T03:40:18.280Z,4.00
2018-11-25T03:45:26.606Z,3.87
2018-11-25T03:48:04.940Z,4.27
2018-11-25T03:50:41.767Z,4.33
2018-11-25T03:53:19.415Z,4.27
2018-11-25T03:55:56.290Z,4.47
2018-11-25T04:01:04.785Z,4.57
2018-11-25T04:03:39.432Z,5.03
2018-11-25T04:06:22.083Z,4.60
2018-11-25T04:08:56.948Z,5.27
2018-11-25T04:11:40.813Z,4.73
2018-11-25T04:14:15.457Z,4.77
2018-11-25T04:16:50.483Z,4.97
2018-11-25T04:19:25.298Z,4.97
2018-11-25T04:22:00.311Z,4.80
2018-11-25T04:29:41.899Z,5.87
2018-11-25T04:32:16.732Z,6.07
2018-11-25T04:34:51.406Z,5.20
2018-11-25T04:37:26.350Z,5.43
2018-11-25T04:42:35.333Z,5.10
2018-11-25T04:47:50.908Z,5.40
2018-11-25T04:50:26.296Z,5.67
2018-11-25T04:55:36.992Z,5.00
2018-11-25T04:58:17.966Z,5.27
2018-11-25T05:00:52.948Z,5.33
2018-11-25T05:03:28.432Z,5.57
2018-11-25T05:06:02.973Z,5.20
2018-11-25T05:08:37.960Z,4.53
2018-11-25T05:11:12.423Z,5.20
2018-11-25T05:13:46.955Z,5.60
2018-11-25T05:16:21.991Z,5.30
2018-11-25T05:18:56.957Z,5.70
2018-11-25T05:21:32.951Z,4.97
2018-11-25T05:24:07.953Z,5.80
2018-11-25T05:26:43.921Z,5.43
2018-11-25T05:29:18.459Z,5.40
2018-11-25T05:31:53.407Z,5.30
2018-11-25T05:34:28.298Z,5.03
2018-11-25T05:39:38.292Z,6.20
2018-11-25T05:47:19.355Z,5.30
2018-11-25T05:49:54.299Z,15.03
2018-11-25T05:57:34.652Z,5.53
2018-11-25T06:00:24.954Z,5.27
2018-11-25T06:02:59.945Z,5.80
2018-11-25T06:05:35.102Z,5.20
2018-11-25T06:08:10.290Z,9.90
2018-11-25T06:18:26.322Z,4.77
2018-11-25T06:21:01.288Z,5.30
2018-11-25T06:31:15.292Z,4.83
2018-11-25T06:38:55.947Z,5.30
2018-11-25T06:41:34.127Z,4.87
2018-11-25T06:44:06.550Z,5.00
2018-11-25T06:50:38.429Z,4.62
2018-11-25T06:53:13.428Z,4.73
2018-11-25T06:55:48.711Z,4.70
2018-11-25T06:58:23.325Z,4.40
2018-11-25T07:03:31.387Z,4.40
2018-11-25T07:08:38.927Z,4.13
2018-11-25T07:11:14.301Z,4.40
2018-11-25T07:13:49.296Z,4.10
2018-11-25T07:18:57.305Z,3.43
2018-11-25T07:24:05.422Z,6.40
2018-11-25T07:26:40.406Z,4.47
2018-11-25T07:29:15.416Z,4.17
2018-11-25T07:34:23.425Z,3.63
2018-11-25T07:38:11.945Z,3.67
2018-11-25T07:40:47.074Z,3.27
2018-11-25T07:43:23.303Z,4.17
2018-11-25T07:48:31.974Z,3.80
2018-11-25T07:51:07.331Z,3.67
2018-11-25T07:53:41.962Z,3.43
2018-11-25T07:56:16.798Z,4.10
2018-11-25T07:58:52.295Z,4.00
2018-11-25T08:04:00.292Z,4.00
2018-11-25T08:13:18.109Z,4.40
2018-11-25T08:15:53.415Z,4.12
2018-11-25T08:21:01.254Z,4.50
2018-11-25T08:23:36.288Z,4.37
2018-11-25T08:28:44.288Z,5.33
2018-11-25T08:31:18.816Z,10.00
2018-11-25T08:33:53.312Z,9.60
2018-11-25T08:36:28.292Z,7.45
2018-11-25T08:39:02.811Z,5.93
2018-11-25T08:41:37.481Z,5.47
2018-11-25T08:49:17.826Z,5.80
2018-11-25T08:51:52.557Z,5.90
2018-11-25T08:54:27.302Z,5.80
2018-11-25T08:57:02.362Z,6.23
2018-11-25T09:04:43.350Z,9.60
2018-11-25T09:12:25.429Z,6.17
2018-11-25T09:15:00.287Z,6.50
2018-11-25T09:20:20.768Z,7.23
2018-11-25T09:22:56.326Z,7.07
2018-11-25T09:25:33.128Z,7.67
2018-11-25T09:28:11.466Z,7.20
2018-11-25T09:30:46.335Z,7.10
2018-11-25T09:33:23.776Z,7.20
2018-11-25T09:35:58.965Z,9.27
2018-11-25T09:38:33.815Z,6.60
2018-11-25T09:41:08.813Z,8.40
2018-11-25T09:43:43.745Z,6.90
2018-11-25T09:46:19.301Z,7.00
2018-11-25T09:48:53.955Z,7.80
2018-11-25T09:51:29.122Z,7.17
2018-11-25T09:54:04.140Z,6.67
2018-11-25T09:56:38.961Z,6.80
2018-11-25T09:59:14.121Z,6.73
2018-11-25T10:04:21.957Z,6.47
2018-11-25T10:06:57.287Z,7.10
2018-11-25T10:09:31.967Z,8.07
2018-11-25T10:12:07.169Z,5.97
2018-11-25T10:14:41.814Z,6.67
2018-11-25T10:17:17.500Z,6.77
2018-11-25T10:22:25.505Z,6.53
2018-11-25T10:27:33.992Z,6.90
2018-11-25T10:30:13.296Z,7.03
2018-11-25T10:35:21.291Z,5.93
2018-11-25T10:37:56.444Z,6.00
2018-11-25T10:40:31.302Z,6.23
2018-11-25T10:45:39.955Z,6.30
2018-11-25T10:48:16.290Z,7.40
2018-11-25T10:50:51.395Z,14.73
2018-11-25T10:58:31.740Z,5.17
2018-11-25T11:01:23.570Z,5.33
2018-11-25T11:06:51.280Z,5.20
2018-11-25T11:09:25.994Z,4.83
2018-11-25T11:12:00.963Z,5.03
2018-11-25T11:14:35.504Z,6.43
2018-11-25T11:17:10.298Z,4.97
2018-11-25T11:19:45.299Z,4.93
2018-11-25T11:22:20.478Z,5.17
2018-11-25T11:30:01.296Z,5.00
2018-11-25T11:32:36.438Z,4.53
2018-11-25T11:35:12.327Z,6.33
2018-11-25T11:37:47.531Z,7.03
2018-11-25T11:40:22.305Z,5.40
2018-11-25T11:45:30.718Z,4.27
2018-11-25T11:48:05.496Z,4.03
2018-11-25T11:50:40.747Z,4.00
2018-11-25T11:53:15.901Z,5.30
2018-11-25T11:55:50.562Z,6.47
2018-11-25T12:03:30.800Z,4.03
2018-11-25T12:06:05.483Z,4.13
2018-11-25T12:08:40.379Z,4.40
2018-11-25T12:11:15.289Z,3.80
2018-11-25T12:13:49.998Z,4.20
2018-11-25T12:16:24.966Z,4.40
2018-11-25T12:18:59.601Z,4.07
2018-11-25T12:21:34.432Z,3.97
2018-11-25T12:29:15.144Z,4.40
2018-11-25T12:34:23.056Z,3.40
2018-11-25T12:42:04.289Z,4.30
2018-11-25T12:44:39.288Z,3.97
2018-11-25T12:49:47.153Z,5.67
2018-11-25T12:57:29.472Z,5.17
2018-11-25T13:00:04.343Z,6.47
2018-11-25T13:02:39.439Z,7.57
2018-11-25T13:07:47.415Z,5.90
2018-11-25T13:12:56.384Z,5.20
2018-11-25T13:20:37.294Z,6.33
2018-11-25T13:25:45.289Z,7.23
2018-11-25T13:28:20.534Z,5.95
2018-11-25T13:30:55.297Z,5.23
2018-11-25T13:33:30.447Z,5.27
2018-11-25T13:36:05.324Z,4.77
2018-11-25T13:38:40.287Z,5.83
2018-11-25T13:43:48.984Z,5.17
2018-11-25T13:46:23.911Z,5.43
2018-11-25T13:49:00.296Z,5.77
2018-11-25T13:51:35.278Z,5.27
2018-11-25T13:54:09.954Z,5.10
2018-11-25T13:56:44.952Z,5.50
2018-11-25T14:01:52.957Z,5.72
2018-11-25T14:04:27.529Z,5.90
2018-11-25T14:09:35.951Z,5.67
2018-11-25T14:12:10.949Z,5.90
2018-11-25T14:14:45.557Z,5.63
2018-11-25T14:17:20.288Z,5.87
2018-11-25T14:19:55.283Z,6.27
2018-11-25T14:22:30.361Z,5.83
2018-11-25T14:25:05.130Z,5.73
2018-11-25T14:30:24.958Z,5.70
2018-11-25T14:33:00.567Z,6.30
2018-11-25T14:35:35.288Z,6.27
2018-11-25T14:38:10.970Z,6.97
2018-11-25T14:40:45.958Z,6.43
2018-11-25T14:43:20.796Z,6.37
2018-11-25T14:45:55.296Z,6.50
2018-11-25T14:48:30.466Z,6.03
2018-11-25T14:51:05.285Z,8.57
2018-11-25T14:53:39.945Z,13.47
2018-11-25T14:56:14.735Z,11.07
2018-11-25T15:01:22.134Z,6.43
2018-11-25T15:04:02.320Z,10.75
2018-11-25T15:06:37.290Z,8.00
2018-11-25T15:09:14.950Z,7.10
2018-11-25T15:11:49.518Z,8.10
2018-11-25T15:14:24.290Z,7.62
2018-11-25T15:16:59.287Z,6.60
2018-11-25T15:19:34.288Z,6.72
2018-11-25T15:22:08.906Z,7.23
2018-11-25T15:27:16.578Z,8.30
2018-11-25T15:32:24.182Z,7.97
2018-11-25T15:34:59.125Z,9.33
2018-11-25T15:37:34.450Z,9.10
2018-11-25T15:40:17.279Z,8.87
2018-11-25T15:42:52.401Z,9.07
2018-11-25T15:45:27.445Z,8.70
2018-11-25T15:48:08.302Z,10.13
2018-11-25T15:50:43.284Z,8.63
2018-11-25T15:53:18.422Z,7.70
2018-11-25T15:56:01.409Z,8.70
2018-11-25T15:58:36.499Z,7.50
2018-11-25T16:01:11.345Z,9.60
2018-11-25T16:03:49.016Z,23.57
2018-11-25T16:06:38.531Z,30.97
2018-11-25T16:09:14.120Z,11.08
2018-11-25T16:11:48.920Z,9.40
2018-11-25T16:14:23.571Z,10.00
2018-11-25T16:16:58.329Z,10.13
2018-11-25T16:19:32.943Z,13.13
2018-11-25T16:22:07.440Z,10.40
2018-11-25T16:24:42.096Z,10.30
2018-11-25T16:27:16.949Z,9.67
2018-11-25T16:29:51.573Z,9.87
2018-11-25T16:32:26.339Z,9.77
2018-11-25T16:35:01.282Z,9.43
2018-11-25T16:37:36.506Z,9.20
2018-11-25T16:42:53.471Z,9.37
2018-11-25T16:45:28.306Z,10.23
2018-11-25T16:50:36.282Z,10.87
2018-11-25T16:53:11.973Z,11.63
2018-11-25T16:55:46.745Z,10.30
2018-11-25T16:58:21.852Z,10.23
2018-11-25T17:00:56.298Z,10.47
2018-11-25T17:03:31.409Z,10.90
2018-11-25T17:06:06.304Z,10.70
2018-11-25T17:08:48.372Z,9.40
2018-11-25T17:13:56.298Z,10.80
2018-11-25T17:19:04.300Z,9.30
2018-11-25T17:24:15.303Z,10.33
2018-11-25T17:26:50.004Z,10.03
2018-11-25T17:29:25.142Z,8.50
2018-11-25T17:34:33.306Z,8.40
2018-11-25T17:37:08.377Z,9.10
2018-11-25T17:44:49.305Z,51.85
2018-11-25T17:49:57.304Z,13.85
2018-11-25T17:55:05.302Z,8.00
2018-11-25T18:01:00.480Z,7.40
2018-11-25T18:06:11.356Z,8.37
2018-11-25T18:08:50.729Z,7.65
2018-11-25T18:11:25.304Z,7.77
2018-11-25T18:14:01.350Z,7.43
2018-11-25T18:21:32.304Z,7.97
2018-11-25T18:29:14.284Z,8.53
2018-11-25T18:36:56.004Z,8.17
2018-11-25T18:39:31.953Z,8.57
2018-11-25T18:42:07.130Z,8.50
2018-11-25T18:47:00.972Z,9.30
2018-11-25T18:52:10.386Z,9.00
2018-11-25T18:54:50.482Z,8.48
2018-11-25T18:57:25.625Z,8.30
2018-11-25T19:00:01.313Z,8.63
2018-11-25T19:05:18.507Z,8.67
2018-11-25T19:07:55.413Z,7.77
2018-11-25T19:10:30.473Z,7.85
2018-11-25T19:13:06.396Z,7.87
2018-11-25T19:15:41.397Z,9.00
2018-11-25T19:18:16.926Z,8.47
2018-11-25T19:20:52.348Z,8.47
2018-11-25T19:26:01.963Z,9.17
2018-11-25T19:28:37.598Z,8.37
2018-11-25T19:31:12.974Z,9.47
2018-11-25T19:33:54.119Z,9.37
2018-11-25T19:36:29.286Z,9.20
2018-11-25T19:39:05.330Z,9.00
2018-11-25T19:44:17.327Z,8.90
2018-11-25T19:46:52.992Z,10.33
2018-11-25T19:49:27.579Z,9.93
2018-11-25T19:52:02.306Z,9.90
2018-11-25T19:54:37.283Z,9.20
2018-11-25T20:02:52.438Z,8.83
2018-11-25T20:05:27.797Z,8.80
2018-11-25T20:08:03.055Z,7.75
2018-11-25T20:10:38.002Z,8.07
2018-11-25T20:13:15.145Z,10.10
2018-11-25T20:15:50.991Z,8.23
2018-11-25T20:18:27.053Z,9.27
2018-11-25T20:22:37.863Z,9.07
2018-11-25T20:27:54.632Z,10.27
2018-11-25T20:30:34.537Z,9.13
2018-11-25T20:33:26.986Z,9.13
2018-11-25T20:36:02.990Z,9.90
2018-11-25T20:38:56.770Z,9.70
2018-11-25T20:41:31.829Z,10.32
2018-11-25T20:44:07.600Z,11.57
2018-11-25T20:46:59.555Z,10.73
2018-11-25T20:49:35.005Z,15.93
2018-11-25T20:52:27.386Z,13.53
2018-11-25T20:55:02.998Z,12.10
2018-11-25T20:57:38.984Z,12.50
2018-11-25T21:00:22.027Z,13.80
2018-11-25T21:02:58.388Z,14.35
2018-11-25T21:13:13.313Z,16.13
2018-11-25T21:15:48.301Z,15.67
2018-11-25T21:28:37.320Z,14.77
2018-11-25T21:36:18.281Z,14.83
2018-11-25T21:41:27.327Z,14.93
2018-11-25T21:44:05.955Z,15.50
2018-11-25T21:46:41.275Z,14.43
2018-11-25T21:49:16.303Z,13.60
2018-11-25T21:51:51.300Z,15.30
2018-11-25T21:54:28.281Z,14.28
2018-11-25T21:57:03.284Z,13.37
2018-11-25T21:59:38.355Z,12.90
2018-11-25T22:02:13.342Z,14.53
2018-11-25T22:04:48.322Z,14.37
2018-11-25T22:07:23.317Z,14.13
2018-11-25T22:09:58.365Z,13.85
2018-11-25T22:15:05.985Z,13.90
2018-11-25T22:17:41.285Z,14.00
2018-11-25T22:20:17.914Z,13.93
2018-11-25T22:22:53.303Z,13.20
2018-11-25T22:25:28.122Z,14.40
2018-11-25T22:28:03.526Z,13.93
2018-11-25T22:30:38.324Z,14.63
2018-11-25T22:33:14.428Z,13.90
2018-11-25T22:35:49.274Z,13.97
2018-11-25T22:40:57.303Z,13.30
2018-11-25T22:46:05.314Z,14.87
2018-11-25T22:48:41.517Z,13.60
2018-11-25T22:51:16.285Z,15.00
2018-11-25T22:53:51.432Z,14.43
2018-11-25T22:56:26.463Z,13.60
2018-11-25T22:59:01.487Z,13.50
2018-11-25T23:01:36.326Z,15.33
2018-11-25T23:05:02.967Z,14.53
2018-11-25T23:07:38.284Z,14.67
2018-11-25T23:15:19.726Z,16.62
2018-11-25T23:17:55.603Z,17.97
2018-11-25T23:20:30.623Z,18.32
2018-11-25T23:23:06.709Z,17.13
2018-11-25T23:25:41.963Z,16.97
2018-11-25T23:28:17.419Z,17.27
2018-11-25T23:30:52.301Z,18.30
2018-11-25T23:36:01.344Z,18.83
2018-11-25T23:38:37.377Z,17.73
2018-11-25T23:41:12.322Z,17.60
2018-11-25T23:43:47.532Z,18.05
2018-11-25T23:46:22.290Z,18.53
2018-11-25T23:48:57.381Z,19.55
2018-11-25T23:51:32.324Z,18.20
2018-11-25T23:54:07.795Z,17.63
2018-11-25T23:56:42.618Z,18.77
2018-11-25T23:59:20.139Z,18.77
